EST,Max TemperatureF,Mean TemperatureF,Min TemperatureF,Max Dew PointF,MeanDew PointF,Min DewpointF,Max Humidity, Mean Humidity, Min Humidity, Max Sea Level PressureIn, Mean Sea Level PressureIn, Min Sea Level PressureIn, Max VisibilityMiles, Mean VisibilityMiles, Min VisibilityMiles, Max Wind SpeedMPH, Mean Wind SpeedMPH, Max Gust SpeedMPH,PrecipitationIn, CloudCover, Events, WindDirDegrees
2011-12-1,48,41,34,29,23,17,73,53,34,30.31,30.16,29.96,10,10,10,20,12,26,0.00,0,,320
2011-12-2,50,39,28,32,28,24,93,63,39,30.51,30.34,30.27,10,10,10,15,4,24,0.00,1,,294
2011-12-3,44,38,32,30,26,20,85,65,46,30.67,30.62,30.50,10,10,10,10,4,,0.00,0,,21
2011-12-4,52,41,30,45,39,29,100,85,61,30.61,30.49,30.40,10,8,0,10,2,17,0.00,4,Fog,176
2011-12-5,55,48,42,52,47,41,100,95,88,30.39,30.32,30.21,4,1,0,7,1,,0.01,6,Fog,137
2011-12-6,60,55,50,58,54,49,100,95,93,30.20,30.04,29.90,8,2,0,6,3,,0.38,8,Fog-Rain,165
2011-12-7,59,50,39,58,48,37,100,94,87,29.88,29.67,29.43,10,4,0,32,7,40,1.14,8,Fog-Rain,337
2011-12-8,43,39,35,35,27,23,93,68,45,30.32,29.97,29.41,10,9,3,32,22,45,0.25,3,Rain-Snow,294
2011-12-9,48,38,28,41,31,23,89,71,42,30.36,30.28,30.21,10,10,10,10,2,18,0.00,2,,241
2011-12-10,43,35,27,36,22,10,83,56,39,30.49,30.29,30.17,10,10,10,17,7,,0.00,1,,311
2011-12-11,39,32,25,19,15,11,69,51,33,30.64,30.60,30.50,10,10,10,10,4,,0.00,0,,295
2011-12-12,42,34,26,20,17,15,72,54,35,30.61,30.53,30.42,10,10,10,7,2,,0.00,2,,264
2011-12-13,44,34,24,29,22,17,81,61,38,30.41,30.36,30.31,10,10,10,15,7,22,0.00,0,,324
2011-12-14,48,40,32,37,32,26,81,72,56,30.42,30.36,30.31,10,10,10,12,7,,0.00,3,,46
2011-12-15,55,49,43,46,42,38,82,74,67,30.29,30.00,29.77,10,10,10,14,6,23,0.00,7,Rain,186
2011-12-16,55,46,36,48,28,20,77,54,40,30.14,30.01,29.75,10,10,10,28,12,40,0.00,3,,295
2011-12-17,42,34,27,26,22,13,70,59,46,30.16,30.11,30.07,10,10,10,16,7,20,0.00,3,,320
2011-12-18,28,24,19,13,7,3,63,52,36,30.33,30.24,30.15,10,10,10,16,8,,0.00,0,,339
2011-12-19,45,31,17,29,21,8,72,58,47,30.30,30.12,29.95,10,10,10,14,3,26,0.00,3,,228
2011-12-20,46,42,37,35,28,20,83,59,41,30.20,30.12,29.95,10,10,10,15,8,23,0.00,5,,296
2011-12-21,59,49,39,55,47,33,100,91,76,30.16,29.89,29.68,10,4,0,17,4,24,0.29,8,Fog-Rain-Thunderstorm,170
2011-12-22,55,49,43,46,40,37,83,69,53,30.09,30.00,29.77,10,10,8,14,8,22,0.06,4,Rain,283
2011-12-23,46,40,33,43,36,23,93,77,57,30.21,30.00,29.82,10,9,3,20,9,26,0.41,5,Rain,326
2011-12-24,34,29,24,21,16,11,75,60,46,30.48,30.38,30.21,10,10,10,14,7,,0.00,0,,333
2011-12-25,44,34,24,32,24,9,73,62,53,30.43,30.18,29.89,10,10,10,12,3,18,0.00,5,,169
2011-12-26,45,38,30,32,26,22,80,62,40,30.30,30.12,29.88,10,10,8,21,10,28,0.00,2,Rain,301
2011-12-27,57,44,30,55,39,24,94,80,62,30.22,29.78,29.32,10,7,2,30,7,44,1.09,5,Rain,161
2011-12-28,46,38,28,39,26,13,74,60,47,29.81,29.55,29.36,10,10,10,25,15,40,0.00,5,,285
2011-12-29,33,26,21,21,10,6,61,48,38,30.04,29.98,29.83,10,10,10,21,13,31,0.00,2,,276
2011-12-30,51,42,32,38,29,21,93,67,46,30.05,30.01,29.96,10,10,4,8,2,,0.00,4,,133
2011-12-31,53,47,41,46,41,37,97,81,62,30.01,29.88,29.79,10,8,3,10,4,,0.02,4,Rain,300